createdAt,value
2019-01-30T00:02:29.371Z,101.73
2019-01-30T00:05:09.808Z,101.18
2019-01-30T00:08:01.904Z,102.62
2019-01-30T00:10:49.868Z,107.00
2019-01-30T00:13:47.450Z,98.50
2019-01-30T00:16:36.041Z,90.67
2019-01-30T00:19:31.616Z,96.15
2019-01-30T00:26:12.476Z,104.85
2019-01-30T00:29:40.557Z,102.15
2019-01-30T00:32:35.092Z,96.25
2019-01-30T00:35:29.697Z,100.25
2019-01-30T00:38:24.380Z,101.65
2019-01-30T00:41:18.982Z,101.97
2019-01-30T00:44:16.233Z,110.00
2019-01-30T00:47:19.117Z,112.72
2019-01-30T00:50:20.095Z,108.90
2019-01-30T00:53:46.403Z,110.00
2019-01-30T01:04:39.607Z,105.67
2019-01-30T01:07:16.586Z,112.92
2019-01-30T01:10:03.018Z,109.40
2019-01-30T01:12:39.878Z,113.80
2019-01-30T01:15:17.557Z,112.32
2019-01-30T01:17:54.343Z,112.92
2019-01-30T01:20:31.115Z,111.00
2019-01-30T01:23:08.002Z,116.00
2019-01-30T01:25:45.188Z,114.67
2019-01-30T01:28:22.071Z,105.78
2019-01-30T01:30:59.050Z,103.53
2019-01-30T01:33:35.928Z,106.47
2019-01-30T01:36:12.798Z,105.92
2019-01-30T01:38:49.572Z,105.35
2019-01-30T01:41:26.393Z,102.30
2019-01-30T01:44:03.629Z,105.72
2019-01-30T01:46:40.518Z,104.38
2019-01-30T01:49:17.508Z,103.75
2019-01-30T01:51:54.369Z,96.10
2019-01-30T01:54:31.354Z,97.08
2019-01-30T01:57:08.534Z,95.47
2019-01-30T01:59:45.412Z,94.72
2019-01-30T02:02:22.183Z,96.15
2019-01-30T02:05:04.287Z,95.85
2019-01-30T02:11:28.114Z,94.65
2019-01-30T02:14:25.304Z,92.90
2019-01-30T02:17:19.488Z,92.17
2019-01-30T02:23:37.686Z,91.47
2019-01-30T02:26:35.955Z,90.83
2019-01-30T02:29:37.628Z,91.53
2019-01-30T02:36:58.683Z,91.12
2019-01-30T02:39:53.377Z,90.30
2019-01-30T02:42:48.059Z,93.67
2019-01-30T02:45:42.991Z,86.35
2019-01-30T02:52:37.990Z,85.85
2019-01-30T02:55:32.592Z,82.67
2019-01-30T02:58:26.983Z,83.78
2019-01-30T03:01:21.376Z,81.08
2019-01-30T03:04:15.871Z,79.10
2019-01-30T03:07:10.545Z,76.65
2019-01-30T03:10:13.247Z,76.82
2019-01-30T03:16:01.716Z,74.58
2019-01-30T03:18:56.411Z,75.55
2019-01-30T03:21:51.927Z,78.95
2019-01-30T03:24:47.015Z,77.35
2019-01-30T03:27:41.408Z,79.65
2019-01-30T03:30:36.013Z,77.47
2019-01-30T03:33:30.283Z,73.42
2019-01-30T03:36:24.984Z,76.07
2019-01-30T03:39:19.880Z,75.05
2019-01-30T03:42:14.894Z,74.05
2019-01-30T03:45:12.490Z,74.62
2019-01-30T03:48:07.652Z,75.52
2019-01-30T03:51:02.353Z,70.03
2019-01-30T03:53:56.845Z,66.25
2019-01-30T03:56:51.028Z,70.17
2019-01-30T03:59:45.632Z,68.70
2019-01-30T04:02:40.523Z,71.22
2019-01-30T04:05:35.222Z,72.65
2019-01-30T04:08:30.231Z,70.80
2019-01-30T04:11:35.642Z,72.47
2019-01-30T04:14:29.966Z,77.17
2019-01-30T04:17:24.441Z,74.15
2019-01-30T04:20:20.729Z,74.60
2019-01-30T04:23:15.279Z,76.62
2019-01-30T04:26:09.655Z,72.35
2019-01-30T04:29:04.258Z,76.17
2019-01-30T04:40:00.439Z,73.55
2019-01-30T04:42:56.358Z,77.55
2019-01-30T04:46:03.991Z,76.82
2019-01-30T04:49:02.664Z,76.00
2019-01-30T04:51:57.621Z,80.15
2019-01-30T04:54:52.567Z,81.57
2019-01-30T04:57:47.359Z,77.70
2019-01-30T05:00:42.156Z,78.83
2019-01-30T05:03:36.636Z,81.70
2019-01-30T05:06:33.010Z,81.28
2019-01-30T05:09:27.467Z,83.70
2019-01-30T05:12:21.858Z,84.00
2019-01-30T05:15:19.502Z,85.47
2019-01-30T05:18:14.008Z,86.57
2019-01-30T05:21:08.602Z,84.85
2019-01-30T05:24:03.533Z,85.22
2019-01-30T05:26:58.104Z,88.72
2019-01-30T05:29:52.801Z,88.70
2019-01-30T05:32:47.106Z,86.50
2019-01-30T05:35:41.595Z,87.50
2019-01-30T05:38:37.603Z,92.22
2019-01-30T05:41:38.143Z,92.57
2019-01-30T05:44:32.820Z,93.67
2019-01-30T05:47:32.490Z,88.27
2019-01-30T05:50:27.956Z,91.93
2019-01-30T05:53:07.592Z,93.05
2019-01-30T05:55:44.365Z,95.77
2019-01-30T05:58:25.603Z,162.05
2019-01-30T06:01:04.683Z,97.90
2019-01-30T06:03:41.769Z,100.10
2019-01-30T06:06:18.742Z,98.78
2019-01-30T06:08:55.521Z,147.70
2019-01-30T06:11:32.402Z,140.92
2019-01-30T06:14:09.503Z,93.95
2019-01-30T06:16:46.756Z,93.22
2019-01-30T06:19:23.505Z,91.50
2019-01-30T06:22:00.363Z,95.15
2019-01-30T06:24:37.074Z,113.85
2019-01-30T06:27:13.898Z,249.07
2019-01-30T06:29:50.643Z,332.27
2019-01-30T06:32:27.523Z,110.72
2019-01-30T06:35:05.422Z,98.07
2019-01-30T06:37:42.158Z,103.45
2019-01-30T06:40:23.284Z,106.43
2019-01-30T06:43:02.396Z,101.15
2019-01-30T06:45:38.575Z,94.32
2019-01-30T06:48:15.466Z,101.30
2019-01-30T06:50:52.136Z,113.70
2019-01-30T06:53:28.968Z,102.22
2019-01-30T06:56:05.667Z,91.17
2019-01-30T06:58:43.675Z,101.45
2019-01-30T07:01:20.905Z,369.32
2019-01-30T07:03:57.979Z,121.05
2019-01-30T07:06:34.662Z,100.07
2019-01-30T07:09:11.604Z,99.15
2019-01-30T07:11:48.624Z,95.87
2019-01-30T07:14:25.701Z,96.92
2019-01-30T07:17:02.712Z,92.20
2019-01-30T07:19:39.403Z,102.05
2019-01-30T07:22:16.297Z,174.60
2019-01-30T07:24:53.157Z,110.03
2019-01-30T07:27:29.907Z,92.15
2019-01-30T07:30:26.379Z,100.95
2019-01-30T07:33:03.193Z,110.55
2019-01-30T07:35:40.035Z,107.52
2019-01-30T07:38:16.815Z,95.85
2019-01-30T07:40:54.048Z,88.75
2019-01-30T07:43:30.876Z,109.70
2019-01-30T07:46:11.097Z,237.93
2019-01-30T07:48:47.902Z,124.35
2019-01-30T07:51:24.703Z,86.45
2019-01-30T07:54:01.411Z,82.12
2019-01-30T07:56:39.161Z,81.85
2019-01-30T07:59:16.237Z,73.52
2019-01-30T08:01:53.320Z,67.30
2019-01-30T08:04:30.114Z,68.10
2019-01-30T08:07:06.876Z,70.90
2019-01-30T08:09:43.656Z,63.33
2019-01-30T08:12:20.621Z,69.12
2019-01-30T08:14:57.303Z,106.63
2019-01-30T08:17:34.375Z,81.85
2019-01-30T08:20:15.197Z,78.73
2019-01-30T08:22:52.662Z,95.22
2019-01-30T08:25:29.558Z,75.95
2019-01-30T08:28:06.536Z,58.73
2019-01-30T08:30:43.363Z,61.28
2019-01-30T08:33:21.639Z,56.25
2019-01-30T08:35:58.562Z,60.78
2019-01-30T08:38:37.173Z,53.83
2019-01-30T08:41:13.876Z,49.38
2019-01-30T08:43:50.842Z,50.43
2019-01-30T08:46:27.925Z,50.38
2019-01-30T08:49:04.699Z,48.42
2019-01-30T08:51:41.588Z,49.15
2019-01-30T08:54:18.466Z,47.85
2019-01-30T08:56:55.344Z,66.47
2019-01-30T08:59:32.215Z,53.73
2019-01-30T09:02:08.993Z,48.35
2019-01-30T09:04:45.982Z,47.20
2019-01-30T09:07:22.960Z,49.23
2019-01-30T09:09:59.825Z,48.35
2019-01-30T09:12:36.606Z,54.35
2019-01-30T09:15:17.343Z,49.48
2019-01-30T09:17:54.047Z,51.23
2019-01-30T09:20:30.820Z,47.05
2019-01-30T09:23:07.598Z,46.15
2019-01-30T09:25:44.364Z,47.93
2019-01-30T09:28:21.149Z,43.80
2019-01-30T09:30:58.143Z,48.38
2019-01-30T09:33:35.070Z,44.20
2019-01-30T09:36:12.110Z,46.80
2019-01-30T09:38:48.973Z,50.90
2019-01-30T09:41:25.832Z,58.83
2019-01-30T09:44:02.981Z,47.40
2019-01-30T09:46:40.024Z,44.10
2019-01-30T09:49:16.700Z,44.55
2019-01-30T09:51:53.792Z,42.13
2019-01-30T09:54:32.272Z,40.52
2019-01-30T09:57:09.269Z,42.78
2019-01-30T09:59:46.132Z,43.73
2019-01-30T10:02:25.405Z,43.20
2019-01-30T10:05:01.630Z,42.08
2019-01-30T10:07:39.541Z,43.38
2019-01-30T10:10:21.230Z,44.58
2019-01-30T10:12:59.138Z,43.80
2019-01-30T10:15:41.949Z,44.65
2019-01-30T10:18:18.819Z,46.77
2019-01-30T10:20:55.839Z,47.73
2019-01-30T10:23:32.689Z,49.75
2019-01-30T10:26:09.570Z,48.00
2019-01-30T10:28:46.345Z,45.60
2019-01-30T10:31:23.220Z,46.13
2019-01-30T10:34:00.102Z,46.68
2019-01-30T10:36:36.984Z,52.93
2019-01-30T10:39:13.956Z,50.50
2019-01-30T10:41:50.972Z,51.35
2019-01-30T10:44:27.910Z,50.38
2019-01-30T10:47:04.688Z,52.15
2019-01-30T10:49:41.876Z,52.75
2019-01-30T10:52:18.859Z,50.05
2019-01-30T10:54:55.842Z,52.25
2019-01-30T10:57:32.882Z,53.17
2019-01-30T11:00:26.507Z,53.75
2019-01-30T11:03:04.005Z,52.27
2019-01-30T11:05:41.253Z,54.73
2019-01-30T11:08:18.090Z,55.88
2019-01-30T11:10:54.810Z,54.83
2019-01-30T11:13:31.741Z,52.27
2019-01-30T11:16:08.582Z,59.08
2019-01-30T11:18:45.460Z,60.00
2019-01-30T11:21:23.259Z,60.80
2019-01-30T11:24:00.026Z,66.37
2019-01-30T11:26:36.896Z,54.27
2019-01-30T11:29:13.940Z,53.17
2019-01-30T11:31:50.967Z,55.98
2019-01-30T11:34:27.767Z,60.03
2019-01-30T11:37:04.597Z,58.28
2019-01-30T11:39:41.507Z,57.33
2019-01-30T11:42:18.488Z,57.58
2019-01-30T11:44:56.635Z,59.67
2019-01-30T11:47:33.447Z,66.42
2019-01-30T11:50:14.878Z,52.58
2019-01-30T11:52:51.674Z,57.45
2019-01-30T11:55:38.908Z,56.83
2019-01-30T11:58:21.390Z,56.55
2019-01-30T12:01:03.561Z,54.80
2019-01-30T12:03:47.626Z,52.67
2019-01-30T12:06:34.879Z,54.88
2019-01-30T12:09:16.568Z,53.48
2019-01-30T12:11:59.797Z,56.10
2019-01-30T12:14:37.320Z,54.13
2019-01-30T12:17:14.081Z,53.78
2019-01-30T12:19:50.810Z,56.05
2019-01-30T12:22:27.645Z,57.50
2019-01-30T12:25:06.193Z,52.85
2019-01-30T12:27:44.029Z,56.98
2019-01-30T12:30:28.945Z,60.27
2019-01-30T12:33:05.801Z,54.48
2019-01-30T12:35:42.543Z,52.67
2019-01-30T12:38:19.335Z,51.63
2019-01-30T12:40:56.148Z,54.58
2019-01-30T12:43:32.935Z,58.20
2019-01-30T12:46:11.547Z,57.65
2019-01-30T12:48:49.031Z,51.63
2019-01-30T12:51:25.813Z,55.30
2019-01-30T12:54:02.647Z,54.58
2019-01-30T12:56:39.411Z,63.55
2019-01-30T12:59:24.322Z,54.42
2019-01-30T13:02:01.183Z,53.52
2019-01-30T13:04:39.106Z,52.25
2019-01-30T13:07:16.005Z,54.10
2019-01-30T13:09:52.684Z,57.83
2019-01-30T13:12:29.473Z,58.38
2019-01-30T13:15:18.810Z,59.77
2019-01-30T13:17:55.570Z,61.40
2019-01-30T13:20:32.293Z,59.33
2019-01-30T13:23:09.335Z,59.50
2019-01-30T13:25:46.538Z,59.50
2019-01-30T13:28:23.294Z,60.55
2019-01-30T13:31:00.069Z,62.15
2019-01-30T13:33:36.979Z,59.58
2019-01-30T13:36:13.789Z,64.65
2019-01-30T13:38:50.460Z,59.90
2019-01-30T13:41:28.342Z,62.48
2019-01-30T13:44:06.524Z,62.83
2019-01-30T13:46:43.316Z,59.23
2019-01-30T13:49:20.285Z,55.12
2019-01-30T13:51:57.048Z,56.48
2019-01-30T13:54:33.817Z,63.02
2019-01-30T13:57:10.514Z,54.23
2019-01-30T13:59:47.366Z,52.23
2019-01-30T14:02:24.246Z,44.00
2019-01-30T14:05:00.988Z,40.48
2019-01-30T14:07:37.947Z,38.08
2019-01-30T14:10:23.473Z,37.53
2019-01-30T14:13:00.323Z,40.95
2019-01-30T14:15:37.201Z,42.85
2019-01-30T14:18:13.962Z,44.08
2019-01-30T14:20:51.214Z,41.23
2019-01-30T14:23:27.964Z,43.05
2019-01-30T14:26:04.732Z,44.13
2019-01-30T14:28:42.291Z,46.42
2019-01-30T14:31:19.258Z,72.17
2019-01-30T14:33:56.609Z,71.97
2019-01-30T14:36:33.925Z,49.45
2019-01-30T14:39:11.129Z,114.30
2019-01-30T14:41:47.911Z,55.17
2019-01-30T14:44:24.764Z,47.95
2019-01-30T14:47:01.650Z,52.33
2019-01-30T14:49:38.835Z,45.35
2019-01-30T14:52:15.817Z,43.48
2019-01-30T14:54:52.794Z,42.80
2019-01-30T14:57:29.556Z,46.00
2019-01-30T15:00:13.830Z,46.05
2019-01-30T15:02:50.780Z,45.23
2019-01-30T15:05:28.098Z,45.12
2019-01-30T15:08:04.863Z,58.23
2019-01-30T15:10:41.815Z,55.15
2019-01-30T15:13:19.100Z,51.83
2019-01-30T15:15:55.926Z,52.27
2019-01-30T15:18:32.774Z,53.52
2019-01-30T15:21:09.546Z,58.65
2019-01-30T15:23:46.519Z,86.02
2019-01-30T15:26:23.499Z,99.28
2019-01-30T15:29:00.376Z,93.50
2019-01-30T15:31:37.372Z,90.50
2019-01-30T15:34:14.351Z,83.82
2019-01-30T15:36:51.205Z,95.50
2019-01-30T15:39:27.984Z,93.15
2019-01-30T15:42:04.871Z,100.65
2019-01-30T15:44:41.544Z,98.33
2019-01-30T15:47:18.519Z,93.47
2019-01-30T15:49:55.702Z,80.75
2019-01-30T15:52:32.574Z,95.42
2019-01-30T15:55:13.289Z,107.35
2019-01-30T15:57:54.432Z,127.90
2019-01-30T16:00:47.692Z,140.37
2019-01-30T16:03:24.572Z,124.55
2019-01-30T16:06:01.550Z,102.55
2019-01-30T16:08:38.430Z,112.57
2019-01-30T16:11:15.301Z,114.57
2019-01-30T16:13:52.183Z,94.70
2019-01-30T16:16:29.467Z,106.45
2019-01-30T16:19:06.353Z,93.15
2019-01-30T16:21:43.227Z,74.90
2019-01-30T16:24:20.008Z,69.53
2019-01-30T16:26:56.868Z,90.12
2019-01-30T16:29:33.880Z,100.30
2019-01-30T16:32:10.745Z,90.90
2019-01-30T16:34:47.568Z,68.17
2019-01-30T16:37:24.403Z,57.17
2019-01-30T16:40:02.912Z,54.58
2019-01-30T16:42:40.099Z,61.05
2019-01-30T16:45:30.021Z,57.00
2019-01-30T16:48:13.345Z,64.47
2019-01-30T16:51:04.623Z,78.15
2019-01-30T16:53:42.636Z,83.22
2019-01-30T16:56:20.417Z,140.18
2019-01-30T16:58:57.198Z,117.65
2019-01-30T17:01:39.071Z,112.17
2019-01-30T17:04:15.972Z,158.45
2019-01-30T17:06:52.850Z,134.25
2019-01-30T17:09:29.847Z,136.10
2019-01-30T17:12:06.722Z,127.02
2019-01-30T17:14:43.587Z,123.87
2019-01-30T17:17:20.886Z,113.15
2019-01-30T17:19:57.961Z,98.85
2019-01-30T17:22:34.949Z,101.45
2019-01-30T17:25:11.811Z,105.58
2019-01-30T17:27:48.624Z,108.87
2019-01-30T17:30:39.109Z,108.95
2019-01-30T17:33:25.501Z,114.00
2019-01-30T17:36:04.620Z,124.70
2019-01-30T17:38:41.714Z,126.85
2019-01-30T17:41:18.476Z,144.95
2019-01-30T17:43:55.257Z,152.27
2019-01-30T17:46:32.133Z,116.67
2019-01-30T17:49:09.010Z,110.72
2019-01-30T17:51:46.103Z,117.60
2019-01-30T17:54:31.653Z,118.85
2019-01-30T17:57:08.371Z,127.42
2019-01-30T17:59:45.185Z,115.72
2019-01-30T18:02:22.060Z,121.05
2019-01-30T18:04:59.296Z,137.07
2019-01-30T18:07:36.168Z,144.22
2019-01-30T18:10:17.755Z,135.83
2019-01-30T18:12:54.921Z,136.37
2019-01-30T18:15:31.825Z,133.75
2019-01-30T18:18:08.693Z,134.30
2019-01-30T18:20:45.550Z,140.55
2019-01-30T18:23:23.186Z,126.65
2019-01-30T18:26:01.614Z,124.35
2019-01-30T18:28:38.368Z,120.05
2019-01-30T18:31:15.045Z,135.37
2019-01-30T18:33:53.865Z,138.07
2019-01-30T18:36:40.429Z,158.72
2019-01-30T18:39:10.021Z,147.60
2019-01-30T18:41:47.052Z,167.98
2019-01-30T18:44:23.853Z,160.20
2019-01-30T18:47:01.712Z,163.00
2019-01-30T18:49:38.485Z,161.03
2019-01-30T18:52:16.441Z,156.30
2019-01-30T18:54:53.144Z,153.78
2019-01-30T18:57:30.875Z,150.55
2019-01-30T19:00:26.265Z,147.15
2019-01-30T19:03:05.378Z,154.35
2019-01-30T19:05:42.077Z,136.05
2019-01-30T19:08:18.834Z,128.10
2019-01-30T19:10:55.604Z,122.95
2019-01-30T19:13:32.490Z,146.95
2019-01-30T19:16:09.249Z,156.30
2019-01-30T19:18:48.900Z,159.10
2019-01-30T19:21:24.469Z,163.43
2019-01-30T19:24:01.237Z,163.37
2019-01-30T19:26:37.961Z,181.40
2019-01-30T19:29:14.697Z,160.80
2019-01-30T19:31:52.548Z,139.43
2019-01-30T19:34:29.267Z,130.75
2019-01-30T19:37:05.991Z,138.57
2019-01-30T19:39:42.845Z,106.58
2019-01-30T19:42:19.696Z,93.52
2019-01-30T19:44:56.477Z,97.08
2019-01-30T19:47:33.226Z,102.00
2019-01-30T19:50:14.801Z,111.85
2019-01-30T19:52:53.788Z,135.05
2019-01-30T19:55:30.501Z,138.40
2019-01-30T19:58:07.594Z,138.82
2019-01-30T20:00:46.222Z,122.17
2019-01-30T20:03:24.730Z,117.55
2019-01-30T20:06:01.480Z,116.35
2019-01-30T20:08:38.256Z,126.75
2019-01-30T20:11:17.581Z,114.30
2019-01-30T20:13:54.411Z,114.70
2019-01-30T20:16:32.072Z,109.05
2019-01-30T20:19:08.757Z,108.12
2019-01-30T20:21:45.722Z,106.37
2019-01-30T20:24:22.585Z,102.87
2019-01-30T20:26:59.344Z,100.92
2019-01-30T20:29:36.021Z,97.88
2019-01-30T20:32:12.941Z,93.75
2019-01-30T20:34:50.128Z,100.10
2019-01-30T20:37:26.855Z,107.50
2019-01-30T20:40:03.576Z,120.47
2019-01-30T20:42:40.515Z,116.10
2019-01-30T20:45:17.344Z,108.57
2019-01-30T20:47:54.483Z,109.03
2019-01-30T20:50:32.239Z,105.35
2019-01-30T20:53:09.030Z,106.80
2019-01-30T20:55:45.786Z,105.25
2019-01-30T20:58:22.540Z,102.75
2019-01-30T21:00:59.325Z,108.47
2019-01-30T21:03:36.179Z,106.22
2019-01-30T21:06:13.016Z,106.05
2019-01-30T21:08:49.832Z,104.53
2019-01-30T21:11:26.565Z,105.25
2019-01-30T21:14:03.403Z,108.40
2019-01-30T21:16:40.148Z,111.77
2019-01-30T21:19:16.872Z,118.00
2019-01-30T21:21:53.889Z,114.80
2019-01-30T21:24:31.735Z,111.92
2019-01-30T21:27:08.462Z,113.52
2019-01-30T21:29:45.236Z,115.80
2019-01-30T21:32:22.156Z,119.17
2019-01-30T21:34:58.902Z,118.95
2019-01-30T21:37:35.872Z,119.28
2019-01-30T21:40:16.719Z,110.42
2019-01-30T21:42:53.572Z,111.10
2019-01-30T21:45:30.388Z,111.22
2019-01-30T21:48:07.123Z,108.65
2019-01-30T21:50:43.894Z,110.63
2019-01-30T21:53:23.891Z,109.97
2019-01-30T21:56:00.584Z,106.92
2019-01-30T21:58:37.354Z,112.95
2019-01-30T22:01:15.061Z,112.32
2019-01-30T22:03:51.946Z,116.53
2019-01-30T22:06:28.670Z,112.68
2019-01-30T22:09:07.261Z,117.77
2019-01-30T22:11:44.499Z,113.97
2019-01-30T22:14:21.195Z,117.57
2019-01-30T22:16:58.041Z,117.25
2019-01-30T22:19:34.723Z,118.42
2019-01-30T22:22:11.636Z,115.82
2019-01-30T22:24:48.346Z,119.13
2019-01-30T22:27:25.091Z,120.67
2019-01-30T22:30:01.875Z,123.00
2019-01-30T22:32:39.954Z,121.75
2019-01-30T22:35:16.725Z,118.40
2019-01-30T22:37:53.466Z,122.15
2019-01-30T22:40:30.199Z,122.25
2019-01-30T22:43:07.093Z,118.00
2019-01-30T22:45:43.815Z,124.53
2019-01-30T22:48:21.260Z,114.50
2019-01-30T22:50:57.994Z,111.15
2019-01-30T22:53:36.960Z,109.20
2019-01-30T22:56:13.751Z,107.95
2019-01-30T22:58:50.717Z,104.92
2019-01-30T23:01:38.044Z,104.00
2019-01-30T23:04:25.429Z,106.37
2019-01-30T23:07:36.894Z,100.12
2019-01-30T23:10:24.072Z,105.43
2019-01-30T23:13:14.381Z,108.50
2019-01-30T23:16:16.854Z,108.78
2019-01-30T23:19:18.956Z,112.05
2019-01-30T23:22:09.443Z,111.57
2019-01-30T23:25:13.178Z,107.00
2019-01-30T23:27:57.595Z,109.75
2019-01-30T23:31:07.895Z,110.10
2019-01-30T23:34:07.249Z,112.65
2019-01-30T23:37:11.178Z,106.32
2019-01-30T23:40:15.271Z,104.95
2019-01-30T23:43:19.255Z,99.52
2019-01-30T23:46:35.545Z,97.57
2019-01-30T23:49:38.241Z,100.60
2019-01-30T23:52:46.818Z,94.50
2019-01-30T23:55:53.862Z,95.92
2019-01-30T23:58:47.263Z,103.55
